Time;durP1;ratioP1;P1;durP2;ratioP2;P2;SDS_P1;SDS_P2;PMS_P1;PMS_P2;Temp;Humidity;BMP_temperature;BMP_pressure;BME280_temperature;BME280_humidity;BME280_pressure;Samples;Min_cycle;Max_cycle;Signal;HPM_P1;HPM_P2
2022/11/24 00:01:24;;;;;;;18.13;8.55;;;7.00;99.90;;;;;;5108230;28;20054;-84
2022/11/24 00:04:10;;;;;;;21.67;8.60;;;6.30;99.90;;;;;;5096101;28;20059;-85
2022/11/24 00:06:36;;;;;;;17.52;8.65;;;6.60;99.90;;;;;;5107438;27;20071;-84
2022/11/24 00:09:03;;;;;;;19.83;8.43;;;7.00;99.90;;;;;;5107077;28;20097;-84
2022/11/24 00:11:31;;;;;;;19.27;8.23;;;6.30;99.90;;;;;;5109226;28;20382;-84
2022/11/24 00:13:57;;;;;;;21.55;7.80;;;7.00;99.90;;;;;;5110201;28;20054;-83
2022/11/24 00:16:26;;;;;;;22.27;8.07;;;7.00;99.90;;;;;;5110748;28;20067;-84
2022/11/24 00:18:53;;;;;;;18.17;7.45;;;6.20;99.90;;;;;;5093457;28;20050;-84
2022/11/24 00:21:20;;;;;;;20.08;7.32;;;7.00;99.90;;;;;;5109320;28;20489;-84
2022/11/24 00:23:46;;;;;;;21.10;7.38;;;6.30;99.90;;;;;;5110414;27;20119;-84
2022/11/24 00:26:15;;;;;;;16.52;7.43;;;6.30;99.90;;;;;;5110622;28;20046;-84
2022/11/24 00:28:42;;;;;;;20.48;7.85;;;6.70;99.90;;;;;;5111146;28;20062;-84
2022/11/24 00:31:17;;;;;;;21.17;8.68;;;6.20;99.90;;;;;;5108884;28;20051;-85
2022/11/24 00:33:44;;;;;;;26.15;7.70;;;6.30;99.90;;;;;;5110567;28;20102;-84
2022/11/24 00:36:09;;;;;;;18.42;7.43;;;6.20;99.90;;;;;;5108203;28;20040;-83
2022/11/24 00:38:35;;;;;;;19.15;7.20;;;6.30;99.90;;;;;;5111009;28;20040;-84
2022/11/24 00:41:01;;;;;;;20.20;7.35;;;6.40;99.90;;;;;;5107842;28;20108;-84
2022/11/24 00:43:26;;;;;;;21.08;7.65;;;7.00;99.90;;;;;;5105147;28;20048;-83
2022/11/24 00:45:52;;;;;;;22.73;6.78;;;7.20;99.90;;;;;;5108938;28;20039;-84
2022/11/24 00:48:17;;;;;;;18.17;7.03;;;6.90;99.90;;;;;;5109350;28;20054;-83
2022/11/24 00:51:05;;;;;;;17.15;6.40;;;6.40;99.90;;;;;;5091060;28;20047;-84
2022/11/24 00:53:30;;;;;;;17.13;7.00;;;6.20;99.90;;;;;;5110292;28;20115;-84
2022/11/24 00:55:56;;;;;;;18.90;7.00;;;6.30;99.90;;;;;;5109540;28;20553;-84
2022/11/24 00:58:23;;;;;;;24.60;8.30;;;7.50;99.90;;;;;;5107886;28;20461;-84
2022/11/24 01:00:51;;;;;;;23.55;6.70;;;6.20;99.90;;;;;;5108309;28;20109;-84
2022/11/24 01:03:19;;;;;;;19.05;6.50;;;6.20;99.90;;;;;;5087030;28;20498;-85
2022/11/24 01:05:44;;;;;;;21.10;6.38;;;6.20;99.90;;;;;;5125152;27;20441;-84
2022/11/24 01:08:11;;;;;;;21.95;6.10;;;6.20;99.90;;;;;;5109238;28;20124;-84
2022/11/24 01:10:37;;;;;;;19.73;6.55;;;6.20;99.90;;;;;;5108951;28;20079;-84
2022/11/24 01:13:03;;;;;;;20.63;6.55;;;6.60;99.90;;;;;;5106774;28;20058;-84
2022/11/24 01:15:29;;;;;;;20.48;6.88;;;6.20;99.90;;;;;;5105508;28;20062;-84
2022/11/24 01:17:56;;;;;;;19.00;6.50;;;6.10;99.90;;;;;;5110303;28;20493;-84
2022/11/24 01:20:22;;;;;;;19.98;5.57;;;7.00;99.90;;;;;;5108851;27;20047;-84
2022/11/24 01:22:51;;;;;;;14.70;5.70;;;6.20;99.90;;;;;;5109712;28;20039;-84
2022/11/24 01:25:16;;;;;;;20.92;5.57;;;6.50;99.90;;;;;;5109726;28;20867;-84
2022/11/24 01:27:42;;;;;;;17.15;5.57;;;6.50;99.90;;;;;;5108161;28;20075;-84
2022/11/24 01:30:09;;;;;;;21.70;5.65;;;6.40;99.90;;;;;;5107782;28;20052;-84
2022/11/24 01:32:35;;;;;;;23.08;6.38;;;6.10;99.90;;;;;;5107302;28;20044;-84
2022/11/24 01:35:02;;;;;;;21.17;5.30;;;6.10;99.90;;;;;;5108005;28;20129;-84
2022/11/24 01:37:27;;;;;;;19.13;5.72;;;6.00;99.90;;;;;;5091033;28;20040;-84
2022/11/24 01:39:53;;;;;;;13.95;5.03;;;7.30;99.90;;;;;;5107890;28;20040;-84
2022/11/24 01:42:18;;;;;;;13.90;5.13;;;6.00;99.90;;;;;;5107592;28;20085;-84
2022/11/24 01:44:44;;;;;;;17.20;5.15;;;6.00;99.90;;;;;;5107832;28;20040;-84
2022/11/24 01:47:25;;;;;;;23.83;6.15;;;6.00;99.90;;;;;;5108296;28;20122;-84
2022/11/24 01:49:54;;;;;;;14.85;5.40;;;7.40;99.90;;;;;;5098491;28;20073;-84
2022/11/24 01:52:30;;;;;;;27.23;7.20;;;6.00;99.90;;;;;;5108033;28;20043;-84
2022/11/24 01:54:58;;;;;;;19.67;5.90;;;6.00;99.90;;;;;;5091353;28;20044;-84
2022/11/24 01:57:33;;;;;;;23.67;5.38;;;6.00;99.90;;;;;;5108510;28;20055;-84
2022/11/24 02:00:04;;;;;;;22.20;5.75;;;6.80;99.90;;;;;;5108852;27;20046;-84
2022/11/24 02:02:30;;;;;;;16.30;4.70;;;6.00;99.90;;;;;;5108464;28;20163;-84
2022/11/24 02:04:59;;;;;;;20.85;5.57;;;5.90;99.90;;;;;;5091284;28;20174;-84
2022/11/24 02:07:25;;;;;;;22.67;5.13;;;5.90;99.90;;;;;;5108389;28;20417;-84
2022/11/24 02:09:55;;;;;;;23.63;5.45;;;6.90;99.90;;;;;;5092239;28;20040;-84
2022/11/24 02:12:23;;;;;;;15.23;4.93;;;5.80;99.90;;;;;;5098531;28;20100;-83
2022/11/24 02:14:50;;;;;;;24.13;5.07;;;5.90;99.90;;;;;;5105764;28;20409;-84
2022/11/24 02:17:15;;;;;;;21.75;4.93;;;5.80;99.90;;;;;;5108396;28;20412;-84
2022/11/24 02:19:51;;;;;;;16.88;4.82;;;5.80;99.90;;;;;;5109310;28;20118;-83
2022/11/24 02:22:31;;;;;;;21.35;4.30;;;5.80;99.90;;;;;;5105813;28;20062;-84
2022/11/24 02:25:03;;;;;;;22.27;4.70;;;5.80;99.90;;;;;;5087351;28;20109;-84
2022/11/24 02:27:29;;;;;;;21.40;5.32;;;5.70;99.90;;;;;;5104624;28;20048;-84
2022/11/24 02:29:55;;;;;;;19.48;5.03;;;5.70;99.90;;;;;;5108071;28;20061;-84
2022/11/24 02:32:22;;;;;;;22.30;5.32;;;5.70;99.90;;;;;;5105907;28;20458;-85
2022/11/24 02:34:47;;;;;;;20.85;5.43;;;5.70;99.90;;;;;;5109097;28;20089;-85
2022/11/24 02:37:13;;;;;;;21.85;5.15;;;5.70;99.90;;;;;;5107600;28;20044;-85
2022/11/24 02:39:38;;;;;;;18.48;5.45;;;5.80;99.90;;;;;;5107936;28;20447;-85
2022/11/24 02:42:10;;;;;;;16.52;4.57;;;6.30;99.90;;;;;;5107033;28;20388;-84
2022/11/24 02:44:41;;;;;;;19.73;5.50;;;5.80;99.90;;;;;;5091487;28;20149;-85
2022/11/24 02:47:11;;;;;;;19.17;4.68;;;5.80;99.90;;;;;;5107663;27;20054;-85
2022/11/24 02:49:37;;;;;;;19.00;4.97;;;5.80;99.90;;;;;;5109225;28;20071;-84
2022/11/24 02:52:03;;;;;;;16.42;5.18;;;5.70;99.90;;;;;;5107629;28;20039;-85
2022/11/24 02:54:29;;;;;;;21.08;4.88;;;5.90;99.90;;;;;;5107180;28;20947;-85
2022/11/24 02:56:55;;;;;;;16.23;4.88;;;5.70;99.90;;;;;;5107425;28;20071;-85
2022/11/24 02:59:20;;;;;;;22.45;5.43;;;5.70;99.90;;;;;;5089147;28;20044;-84
2022/11/24 03:01:46;;;;;;;19.83;6.00;;;5.70;99.90;;;;;;5106439;28;20075;-85
2022/11/24 03:04:12;;;;;;;21.85;4.78;;;6.20;99.90;;;;;;5108038;28;20044;-84
2022/11/24 03:06:38;;;;;;;21.42;5.45;;;6.20;99.90;;;;;;5107468;28;20076;-85
2022/11/24 03:09:04;;;;;;;17.38;3.97;;;6.60;99.90;;;;;;5107199;28;20130;-85
2022/11/24 03:11:29;;;;;;;23.10;4.93;;;5.80;99.90;;;;;;5104668;28;20039;-85
2022/11/24 03:13:55;;;;;;;18.92;4.88;;;6.70;99.90;;;;;;5076440;28;20047;-85
2022/11/24 03:16:21;;;;;;;23.55;5.15;;;5.90;99.90;;;;;;5106074;28;20040;-85
2022/11/24 03:18:49;;;;;;;24.15;5.00;;;6.10;99.90;;;;;;5108159;28;20410;-85
2022/11/24 03:21:14;;;;;;;23.95;4.53;;;6.70;99.90;;;;;;5107556;28;20044;-85
2022/11/24 03:23:40;;;;;;;23.00;4.68;;;6.20;99.90;;;;;;5107585;28;20055;-85
2022/11/24 03:26:11;;;;;;;20.65;4.68;;;7.20;99.90;;;;;;5122511;28;20054;-85
2022/11/24 03:28:37;;;;;;;17.92;3.95;;;6.50;99.90;;;;;;5100324;28;20063;-85
2022/11/24 03:31:03;;;;;;;21.80;4.40;;;7.50;99.90;;;;;;5105054;28;20154;-85
2022/11/24 03:33:29;;;;;;;14.23;4.05;;;6.60;99.90;;;;;;5086395;28;20496;-85
2022/11/24 03:35:54;;;;;;;18.02;3.85;;;7.40;99.90;;;;;;5105133;28;20036;-85
2022/11/24 03:38:20;;;;;;;22.25;4.22;;;6.70;99.90;;;;;;5107367;28;20047;-84
2022/11/24 03:40:46;;;;;;;20.30;4.53;;;6.90;99.90;;;;;;5107827;28;20044;-85
2022/11/24 03:43:11;;;;;;;12.88;3.35;;;6.70;99.90;;;;;;5104507;28;20382;-86
2022/11/24 03:45:37;;;;;;;22.05;3.83;;;6.60;99.90;;;;;;5107355;28;20213;-85
2022/11/24 03:48:06;;;;;;;17.40;3.63;;;6.60;99.90;;;;;;5106945;28;20112;-85
2022/11/24 03:50:32;;;;;;;19.23;4.05;;;6.60;99.90;;;;;;5107944;28;20739;-85
2022/11/24 03:52:58;;;;;;;13.68;2.92;;;7.30;99.90;;;;;;5106782;28;20040;-85
2022/11/24 03:55:23;;;;;;;14.73;3.45;;;7.20;99.90;;;;;;5106244;28;20078;-85
2022/11/24 03:57:49;;;;;;;12.32;3.40;;;6.50;99.90;;;;;;5104021;28;20036;-85
2022/11/24 04:00:15;;;;;;;15.98;3.70;;;6.50;99.90;;;;;;5105916;28;20405;-84
2022/11/24 04:02:41;;;;;;;19.20;3.53;;;6.40;99.90;;;;;;5105058;28;20052;-85
2022/11/24 04:05:07;;;;;;;15.65;3.33;;;6.30;99.90;;;;;;5107665;28;20174;-85
2022/11/24 04:07:32;;;;;;;9.30;3.33;;;6.40;99.90;;;;;;5105852;28;20044;-84
2022/11/24 04:09:58;;;;;;;18.80;3.35;;;6.60;99.90;;;;;;5106847;28;20141;-85
2022/11/24 04:15:08;;;;;;;16.08;3.67;;;6.50;99.90;;;;;;5102886;28;20043;-84
2022/11/24 04:17:34;;;;;;;16.45;3.20;;;6.60;99.90;;;;;;5105311;28;20109;-84
2022/11/24 04:19:59;;;;;;;18.02;3.80;;;6.60;99.90;;;;;;5107482;28;20124;-85
2022/11/24 04:22:25;;;;;;;13.18;3.25;;;6.60;99.90;;;;;;5104699;28;20039;-85
2022/11/24 04:24:50;;;;;;;14.07;3.47;;;6.60;99.90;;;;;;5107234;28;20176;-85
2022/11/24 04:27:16;;;;;;;20.08;3.45;;;6.50;99.90;;;;;;5106073;28;20055;-84
2022/11/24 04:29:41;;;;;;;19.10;3.50;;;6.50;99.90;;;;;;5102530;28;20032;-85
2022/11/24 04:32:07;;;;;;;17.15;3.50;;;6.40;99.90;;;;;;5106354;28;20044;-85
2022/11/24 04:34:33;;;;;;;14.68;3.20;;;6.40;99.90;;;;;;5105555;28;20052;-85
2022/11/24 04:36:59;;;;;;;12.57;3.72;;;6.30;99.90;;;;;;5106492;28;20039;-84
2022/11/24 04:39:25;;;;;;;14.55;3.33;;;6.40;99.90;;;;;;5108011;28;20100;-85
2022/11/24 04:41:50;;;;;;;10.68;2.83;;;6.30;99.90;;;;;;5110156;28;20035;-84
2022/11/24 04:44:16;;;;;;;17.67;3.17;;;6.30;99.90;;;;;;5089526;28;20065;-85
2022/11/24 04:46:41;;;;;;;12.38;3.28;;;6.30;99.90;;;;;;5109593;28;20519;-85
2022/11/24 04:49:10;;;;;;;14.00;3.50;;;6.30;99.90;;;;;;5111166;28;20493;-85
2022/11/24 04:51:37;;;;;;;15.77;4.10;;;6.30;99.90;;;;;;5091254;28;20047;-84
2022/11/24 04:54:03;;;;;;;15.00;4.25;;;6.20;99.90;;;;;;5109874;28;20052;-85
2022/11/24 04:56:29;;;;;;;16.35;3.33;;;6.20;99.90;;;;;;5109638;28;20088;-85
2022/11/24 04:58:54;;;;;;;17.80;3.47;;;6.10;99.90;;;;;;5106861;28;20040;-86
2022/11/24 05:01:20;;;;;;;17.90;3.63;;;6.10;99.90;;;;;;5107354;28;20050;-85
2022/11/24 05:03:45;;;;;;;12.80;2.88;;;6.00;99.90;;;;;;5105578;28;20047;-85
2022/11/24 05:06:11;;;;;;;16.13;3.00;;;5.90;99.90;;;;;;5090723;28;20127;-85
2022/11/24 05:08:36;;;;;;;13.13;3.53;;;5.90;99.90;;;;;;5110151;28;20047;-85
2022/11/24 05:11:06;;;;;;;14.27;2.90;;;5.90;99.90;;;;;;5109960;28;20130;-85
2022/11/24 05:13:32;;;;;;;13.32;3.08;;;5.80;99.90;;;;;;5086504;28;20137;-85
2022/11/24 05:15:58;;;;;;;13.93;4.03;;;5.80;99.90;;;;;;5106173;28;20047;-85
2022/11/24 05:18:24;;;;;;;17.38;3.00;;;5.80;99.90;;;;;;5109240;28;20517;-85
2022/11/24 05:20:50;;;;;;;18.63;3.75;;;5.70;99.90;;;;;;5091450;28;20044;-85
2022/11/24 05:23:15;;;;;;;13.45;3.78;;;5.70;99.90;;;;;;5107732;28;20098;-84
2022/11/24 05:25:41;;;;;;;18.92;4.43;;;5.60;99.90;;;;;;5110437;28;20042;-85
2022/11/24 05:28:08;;;;;;;16.92;3.47;;;5.60;99.90;;;;;;5107502;28;20079;-85
2022/11/24 05:30:39;;;;;;;19.48;3.53;;;5.60;99.90;;;;;;5105826;28;20052;-84
2022/11/24 05:33:17;;;;;;;10.95;3.42;;;5.60;99.90;;;;;;5107142;28;20549;-85
2022/11/24 05:35:44;;;;;;;16.45;3.67;;;5.60;99.90;;;;;;5108963;28;20536;-85
2022/11/24 05:38:10;;;;;;;16.33;3.50;;;5.50;99.90;;;;;;5108373;28;20047;-86
2022/11/24 05:40:36;;;;;;;14.85;3.83;;;5.50;99.90;;;;;;5091502;28;20166;-85
2022/11/24 05:43:01;;;;;;;21.63;3.72;;;5.50;99.90;;;;;;5090408;28;21010;-85
2022/11/24 05:45:27;;;;;;;16.95;3.75;;;5.40;99.90;;;;;;5107324;28;20233;-85
2022/11/24 05:48:02;;;;;;;13.93;3.42;;;5.40;99.90;;;;;;5108100;28;20157;-84
2022/11/24 05:50:30;;;;;;;16.20;3.80;;;5.40;99.90;;;;;;5104693;28;20048;-85
2022/11/24 05:53:00;;;;;;;17.67;3.00;;;5.40;99.90;;;;;;5106805;28;20043;-85
2022/11/24 05:55:26;;;;;;;15.38;3.15;;;5.40;99.90;;;;;;5108288;28;20044;-85
2022/11/24 05:57:58;;;;;;;15.52;3.38;;;5.40;99.90;;;;;;5123167;27;20402;-85
2022/11/24 06:00:23;;;;;;;20.02;4.00;;;5.30;99.90;;;;;;5107183;27;20047;-85
2022/11/24 06:02:49;;;;;;;19.35;3.35;;;5.40;99.90;;;;;;5106264;28;20054;-84
2022/11/24 06:05:14;;;;;;;8.05;3.10;;;5.30;99.90;;;;;;5104896;28;20051;-85
2022/11/24 06:07:40;;;;;;;16.80;3.38;;;5.30;99.90;;;;;;5107428;28;20104;-85
2022/11/24 06:10:06;;;;;;;12.52;3.30;;;5.30;99.90;;;;;;5107359;28;20051;-84
2022/11/24 06:12:34;;;;;;;11.05;3.53;;;5.30;99.90;;;;;;5107390;28;20481;-84
2022/11/24 06:15:13;;;;;;;14.38;3.25;;;5.30;99.90;;;;;;5107373;28;20078;-84
2022/11/24 06:17:39;;;;;;;14.93;2.92;;;5.20;99.90;;;;;;5106523;28;20626;-85
2022/11/24 06:20:05;;;;;;;9.40;3.90;;;5.20;99.90;;;;;;5107602;28;20079;-85
2022/11/24 06:22:36;;;;;;;15.07;3.80;;;5.20;99.90;;;;;;5122748;27;20105;-84
2022/11/24 06:25:02;;;;;;;16.13;3.55;;;5.20;99.90;;;;;;5109400;28;20073;-85
2022/11/24 06:27:28;;;;;;;16.40;3.67;;;5.20;99.90;;;;;;5107077;28;20497;-84
2022/11/24 06:29:54;;;;;;;17.35;4.30;;;5.70;99.90;;;;;;5107678;28;20039;-84
2022/11/24 06:32:38;;;;;;;22.58;4.07;;;5.90;99.90;;;;;;5107904;28;20044;-86
2022/11/24 06:35:07;;;;;;;17.02;3.85;;;5.00;99.90;;;;;;5104153;28;20474;-85
2022/11/24 06:37:37;;;;;;;14.38;4.95;;;5.10;99.90;;;;;;5106014;28;20451;-85
2022/11/24 06:40:09;;;;;;;14.95;3.80;;;5.10;99.90;;;;;;5108812;28;20039;-85
2022/11/24 06:42:40;;;;;;;20.17;6.10;;;5.10;99.90;;;;;;5106899;28;20043;-85
2022/11/24 06:45:09;;;;;;;19.73;5.90;;;5.20;99.90;;;;;;5102665;28;20047;-85
2022/11/24 06:47:35;;;;;;;10.50;3.85;;;5.20;99.90;;;;;;5105592;28;20036;-85
2022/11/24 06:50:01;;;;;;;15.73;3.72;;;5.20;99.90;;;;;;5105897;28;20044;-85
2022/11/24 06:52:26;;;;;;;18.17;4.30;;;5.20;99.90;;;;;;5108751;28;20839;-85
2022/11/24 06:54:52;;;;;;;12.30;4.30;;;5.20;99.90;;;;;;5106956;28;20053;-86
2022/11/24 06:57:18;;;;;;;26.08;7.60;;;5.20;99.90;;;;;;5102475;28;20410;-85
2022/11/24 06:59:43;;;;;;;28.80;11.00;;;5.20;99.90;;;;;;5108477;28;20043;-85
2022/11/24 07:02:09;;;;;;;24.10;7.60;;;5.20;99.90;;;;;;5106050;28;20058;-85
2022/11/24 07:04:35;;;;;;;19.55;5.57;;;5.20;99.90;;;;;;5108989;28;20148;-84
2022/11/24 07:07:01;;;;;;;18.83;4.97;;;5.20;99.90;;;;;;5107995;28;20104;-85
2022/11/24 07:09:27;;;;;;;23.35;5.93;;;5.20;99.90;;;;;;5108408;28;20647;-84
2022/11/24 07:11:55;;;;;;;20.20;5.43;;;5.20;99.90;;;;;;5107147;28;20035;-85
2022/11/24 07:14:20;;;;;;;20.95;5.35;;;5.20;99.90;;;;;;5106838;28;20051;-85
2022/11/24 07:16:46;;;;;;;20.85;4.95;;;6.00;99.90;;;;;;5107689;28;20437;-84
2022/11/24 07:19:11;;;;;;;20.45;4.63;;;5.20;99.90;;;;;;5107144;28;20045;-85
2022/11/24 07:21:37;;;;;;;16.35;4.55;;;5.20;99.90;;;;;;5109532;28;20507;-85
2022/11/24 07:24:03;;;;;;;16.85;4.40;;;5.20;99.90;;;;;;5107540;28;20068;-87
2022/11/24 07:26:29;;;;;;;24.33;4.43;;;5.30;99.90;;;;;;5106217;28;20096;-86
2022/11/24 07:28:55;;;;;;;18.25;3.78;;;5.30;99.90;;;;;;5107976;28;20044;-86
2022/11/24 07:31:23;;;;;;;20.13;4.60;;;5.30;99.90;;;;;;5108139;28;20039;-85
2022/11/24 07:33:54;;;;;;;18.15;5.30;;;5.40;99.90;;;;;;5107996;28;20043;-84
2022/11/24 07:36:20;;;;;;;16.52;4.43;;;5.40;99.90;;;;;;5124061;28;20051;-86
2022/11/24 07:38:46;;;;;;;16.30;4.32;;;5.40;99.90;;;;;;5108349;28;20118;-85
2022/11/24 07:41:12;;;;;;;19.63;4.88;;;5.50;99.90;;;;;;5103534;28;20122;-86
2022/11/24 07:43:38;;;;;;;18.42;4.40;;;5.50;99.90;;;;;;5094864;28;20453;-85
2022/11/24 07:46:06;;;;;;;16.45;4.22;;;6.10;99.90;;;;;;5106451;28;20074;-86
2022/11/24 07:48:32;;;;;;;19.45;4.60;;;5.60;99.90;;;;;;5107841;28;20071;-86
2022/11/24 07:50:59;;;;;;;19.38;5.20;;;5.60;99.90;;;;;;5107783;28;20039;-85
2022/11/24 07:53:25;;;;;;;17.50;5.68;;;5.70;99.90;;;;;;5107652;28;20130;-84
2022/11/24 07:55:55;;;;;;;15.32;4.82;;;5.70;99.90;;;;;;5104772;28;20394;-85
2022/11/24 07:58:21;;;;;;;21.52;4.70;;;5.70;99.90;;;;;;5106558;28;20043;-85
2022/11/24 08:00:47;;;;;;;26.65;5.25;;;5.70;99.90;;;;;;5106526;28;20040;-85
2022/11/24 08:03:13;;;;;;;17.95;5.38;;;5.70;99.90;;;;;;5107580;28;20083;-86
2022/11/24 08:05:38;;;;;;;19.17;5.88;;;5.70;99.90;;;;;;5107740;28;20046;-84
2022/11/24 08:08:04;;;;;;;25.27;5.80;;;5.70;99.90;;;;;;5107721;28;20233;-87
2022/11/24 08:10:29;;;;;;;20.95;6.32;;;5.60;99.90;;;;;;5106704;28;20081;-85
2022/11/24 08:12:59;;;;;;;20.60;5.68;;;5.60;99.90;;;;;;5106094;28;20544;-86
2022/11/24 08:15:25;;;;;;;18.08;6.53;;;5.60;99.90;;;;;;5111820;27;20039;-86
2022/11/24 08:17:51;;;;;;;25.95;8.88;;;5.60;99.90;;;;;;5111444;28;20042;-84
2022/11/24 08:20:16;;;;;;;20.60;5.90;;;5.60;99.90;;;;;;5109466;28;20455;-86
2022/11/24 08:22:42;;;;;;;16.30;6.35;;;5.60;99.90;;;;;;5111262;28;20070;-86
2022/11/24 08:25:08;;;;;;;17.77;5.63;;;5.60;99.90;;;;;;5111054;27;20059;-84
2022/11/24 08:27:33;;;;;;;14.70;5.63;;;5.60;99.90;;;;;;5110054;28;20051;-84
2022/11/24 08:29:59;;;;;;;18.42;5.57;;;5.70;99.90;;;;;;5111680;28;20044;-84
2022/11/24 08:32:25;;;;;;;22.95;8.68;;;5.70;99.90;;;;;;5111163;28;20085;-84
2022/11/24 08:34:50;;;;;;;17.63;6.60;;;5.80;99.90;;;;;;5110598;28;20040;-84
2022/11/24 08:37:16;;;;;;;20.88;8.20;;;5.90;99.90;;;;;;5110994;28;20447;-84
2022/11/24 08:39:42;;;;;;;23.75;8.70;;;6.00;99.90;;;;;;5111489;28;20042;-84
2022/11/24 08:42:07;;;;;;;21.05;6.78;;;6.10;99.90;;;;;;5109260;28;20104;-84
2022/11/24 08:44:33;;;;;;;12.48;5.85;;;6.20;99.90;;;;;;5110098;28;20122;-84
2022/11/24 08:46:58;;;;;;;17.70;5.95;;;6.30;99.90;;;;;;5110961;28;20035;-84
2022/11/24 08:49:24;;;;;;;20.00;7.15;;;6.40;99.90;;;;;;5110618;28;20051;-84
2022/11/24 08:51:50;;;;;;;18.52;5.20;;;6.40;99.90;;;;;;5110506;28;20044;-84
2022/11/24 08:54:17;;;;;;;20.40;5.93;;;6.40;99.90;;;;;;5110061;28;20043;-84
2022/11/24 08:56:44;;;;;;;16.58;5.32;;;6.50;99.90;;;;;;5110660;28;20054;-84
2022/11/24 08:59:13;;;;;;;13.13;4.90;;;5.60;99.90;;;;;;5111014;28;20048;-84
2022/11/24 09:01:38;;;;;;;14.70;4.72;;;6.60;99.90;;;;;;5109536;28;20043;-84
2022/11/24 09:04:04;;;;;;;15.05;4.90;;;6.70;99.90;;;;;;5108197;28;20043;-84
2022/11/24 09:06:30;;;;;;;17.15;5.30;;;6.70;99.90;;;;;;5110892;28;20522;-84
2022/11/24 09:08:57;;;;;;;18.73;4.88;;;6.80;99.90;;;;;;5109330;28;20058;-84
2022/11/24 09:11:23;;;;;;;20.23;5.30;;;6.90;99.90;;;;;;5108609;27;20406;-84
2022/11/24 09:13:49;;;;;;;19.38;6.18;;;6.90;99.90;;;;;;5108633;28;20742;-84
2022/11/24 09:16:20;;;;;;;16.63;5.72;;;7.00;99.90;;;;;;5110210;27;20065;-83
2022/11/24 09:18:52;;;;;;;15.25;4.45;;;7.10;99.90;;;;;;5110752;28;20390;-84
2022/11/24 09:21:19;;;;;;;11.25;4.38;;;7.10;99.90;;;;;;5110214;28;20482;-84
2022/11/24 09:23:47;;;;;;;11.15;4.05;;;7.10;99.90;;;;;;5107220;28;20067;-84
2022/11/24 09:26:22;;;;;;;12.55;4.40;;;7.20;99.90;;;;;;5107349;28;20405;-84
2022/11/24 09:28:48;;;;;;;10.40;4.60;;;7.20;99.90;;;;;;5109302;28;20771;-84
2022/11/24 09:31:16;;;;;;;8.98;3.13;;;7.30;99.90;;;;;;5109168;28;20059;-84
2022/11/24 09:33:42;;;;;;;8.70;3.10;;;7.40;99.90;;;;;;5104986;28;20418;-84
2022/11/24 09:36:08;;;;;;;7.80;3.00;;;7.40;99.90;;;;;;5101575;28;20052;-84
2022/11/24 09:38:34;;;;;;;9.68;2.95;;;8.10;99.90;;;;;;5108820;28;20051;-83
2022/11/24 09:41:21;;;;;;;4.20;2.88;;;7.60;99.90;;;;;;5108113;28;20051;-84
2022/11/24 09:44:17;;;;;;;6.03;3.17;;;7.60;99.90;;;;;;5107281;28;20556;-85
2022/11/24 09:46:55;;;;;;;6.72;2.92;;;7.70;99.90;;;;;;5109005;27;20407;-84
2022/11/24 09:49:37;;;;;;;3.97;2.60;;;7.80;99.90;;;;;;5089291;28;20043;-85
2022/11/24 09:52:09;;;;;;;5.68;2.38;;;7.80;99.90;;;;;;5103600;28;20039;-85
2022/11/24 09:54:40;;;;;;;5.65;2.55;;;7.90;99.90;;;;;;5107878;28;20043;-85
2022/11/24 09:57:10;;;;;;;6.07;2.83;;;7.90;99.90;;;;;;5108949;28;20446;-85
2022/11/24 09:59:36;;;;;;;6.97;2.88;;;7.90;99.90;;;;;;5109570;28;20055;-85
2022/11/24 10:02:09;;;;;;;4.50;2.60;;;8.00;99.90;;;;;;5108749;28;20055;-85
2022/11/24 10:04:41;;;;;;;8.48;3.03;;;8.00;99.90;;;;;;5109452;28;20051;-85
2022/11/24 10:07:31;;;;;;;3.65;2.50;;;8.90;99.90;;;;;;5104530;28;20463;-84
2022/11/24 10:10:16;;;;;;;6.00;2.78;;;8.10;99.90;;;;;;5109237;28;20446;-84
2022/11/24 10:13:19;;;;;;;4.53;2.72;;;8.20;99.90;;;;;;5107385;28;20474;-85
2022/11/24 10:16:19;;;;;;;7.53;3.00;;;8.20;99.90;;;;;;5106952;28;20052;-85
2022/11/24 10:19:08;;;;;;;4.63;3.15;;;8.30;99.90;;;;;;5108777;28;20039;-85
2022/11/24 10:22:06;;;;;;;6.40;3.42;;;8.40;99.90;;;;;;5108636;28;20047;-86
2022/11/24 10:24:50;;;;;;;7.03;3.30;;;8.10;99.90;;;;;;5100027;28;20051;-84
2022/11/24 10:27:20;;;;;;;6.25;3.45;;;8.60;99.90;;;;;;5086951;28;20044;-85
2022/11/24 10:29:50;;;;;;;6.68;3.13;;;8.60;99.90;;;;;;5088650;28;20051;-85
2022/11/24 10:32:29;;;;;;;6.72;3.45;;;8.60;99.90;;;;;;5100370;28;20101;-85
2022/11/24 10:35:01;;;;;;;7.80;3.30;;;8.70;99.90;;;;;;5106256;28;20100;-84
2022/11/24 10:37:39;;;;;;;6.85;3.20;;;8.70;99.90;;;;;;5108807;28;20055;-85
2022/11/24 10:40:08;;;;;;;8.32;3.58;;;8.80;99.90;;;;;;5107880;28;20108;-84
2022/11/24 10:42:39;;;;;;;7.13;3.25;;;8.80;99.90;;;;;;5108692;28;20078;-85
2022/11/24 10:45:13;;;;;;;6.20;3.42;;;8.90;99.90;;;;;;5106476;28;20047;-83
2022/11/24 10:47:39;;;;;;;7.43;3.80;;;9.00;99.90;;;;;;5089991;28;20047;-84
2022/11/24 10:50:21;;;;;;;8.23;3.08;;;9.00;99.90;;;;;;5106528;28;20038;-84
2022/11/24 10:53:08;;;;;;;5.90;3.50;;;9.20;99.90;;;;;;5089918;28;20465;-84
2022/11/24 10:55:55;;;;;;;9.43;3.42;;;9.30;99.90;;;;;;5088270;28;20047;-83
2022/11/24 10:58:35;;;;;;;9.18;3.72;;;9.50;99.90;;;;;;5105697;28;20050;-83
2022/11/24 11:01:19;;;;;;;8.25;3.60;;;9.60;99.90;;;;;;5082573;28;20044;-84
2022/11/24 11:03:51;;;;;;;7.45;3.67;;;9.70;99.90;;;;;;5087083;28;20131;-83
2022/11/24 11:06:23;;;;;;;9.15;4.00;;;9.80;99.90;;;;;;5099277;28;20467;-83
2022/11/24 11:08:49;;;;;;;6.82;3.83;;;9.80;99.90;;;;;;5106394;28;20069;-83
2022/11/24 11:11:28;;;;;;;10.38;4.25;;;9.80;99.90;;;;;;5102755;28;20047;-84
2022/11/24 11:14:00;;;;;;;8.82;4.72;;;9.90;99.90;;;;;;5107051;28;20421;-84
2022/11/24 11:16:32;;;;;;;;;;;9.90;99.90;;;;;;5107078;28;20052;-83
2022/11/24 11:19:00;;;;;;;10.33;4.50;;;9.90;99.90;;;;;;5103824;28;19923;-83
2022/11/24 11:21:38;;;;;;;5.22;3.33;;;9.90;99.90;;;;;;5105143;28;20309;-85
2022/11/24 11:24:15;;;;;;;8.13;3.47;;;9.90;99.90;;;;;;5111674;27;20078;-86
2022/11/24 11:26:41;;;;;;;7.70;4.28;;;10.00;99.90;;;;;;5087596;28;20040;-86
2022/11/24 11:29:06;;;;;;;10.18;4.05;;;10.00;99.90;;;;;;5106020;28;20047;-85
2022/11/24 11:31:34;;;;;;;8.10;3.53;;;10.00;99.90;;;;;;5107943;28;20040;-86
2022/11/24 11:34:01;;;;;;;8.38;3.70;;;10.00;99.90;;;;;;5107245;28;20047;-85
2022/11/24 11:36:30;;;;;;;9.30;3.95;;;10.50;99.90;;;;;;5107824;28;20028;-84
2022/11/24 11:38:57;;;;;;;10.77;3.83;;;10.10;99.90;;;;;;5108332;28;20042;-85
2022/11/24 11:41:35;;;;;;;7.55;3.38;;;10.10;99.90;;;;;;5107107;28;20405;-84
2022/11/24 11:44:09;;;;;;;10.50;3.58;;;10.20;99.90;;;;;;5106117;28;20886;-85
2022/11/24 11:46:34;;;;;;;8.57;3.80;;;10.20;99.90;;;;;;5107763;28;20032;-85
2022/11/24 11:49:00;;;;;;;8.25;3.63;;;10.20;99.90;;;;;;5109636;28;20068;-85
2022/11/24 11:51:40;;;;;;;10.55;4.40;;;10.30;99.90;;;;;;5110858;28;20070;-85
2022/11/24 11:54:24;;;;;;;6.85;3.78;;;10.30;99.90;;;;;;5109650;28;20696;-85
2022/11/24 11:57:17;;;;;;;9.07;4.03;;;10.30;99.90;;;;;;5107971;28;20055;-85
2022/11/24 11:59:54;;;;;;;12.02;5.25;;;10.30;99.90;;;;;;5084464;28;20052;-84
2022/11/24 12:02:52;;;;;;;11.27;3.95;;;10.40;99.90;;;;;;5108967;28;20059;-85
2022/11/24 12:05:28;;;;;;;7.60;4.10;;;10.40;99.90;;;;;;5111353;28;20464;-84
2022/11/24 12:08:17;;;;;;;7.82;4.18;;;10.50;99.90;;;;;;5109393;28;20131;-85
2022/11/24 12:11:01;;;;;;;7.50;3.60;;;10.50;99.90;;;;;;5090709;28;20105;-84
2022/11/24 12:13:57;;;;;;;6.65;4.03;;;10.50;99.90;;;;;;5110344;28;20040;-85
2022/11/24 12:16:29;;;;;;;9.88;4.15;;;10.60;99.90;;;;;;5092148;28;20461;-84
2022/11/24 12:19:04;;;;;;;;;;;10.70;99.90;;;;;;5110054;28;20467;-83
2022/11/24 12:21:42;;;;;;;9.55;3.63;;;10.70;99.90;;;;;;5110046;28;19961;-84
2022/11/24 12:24:26;;;;;;;14.70;4.05;;;10.70;99.90;;;;;;5111298;28;20358;-83
2022/11/24 12:27:07;;;;;;;9.63;3.97;;;10.80;99.90;;;;;;5109591;28;20051;-84
2022/11/24 12:30:03;;;;;;;10.07;3.75;;;10.80;99.90;;;;;;5111204;28;20044;-84
2022/11/24 12:33:12;;;;;;;10.35;3.53;;;10.80;99.90;;;;;;5097195;28;20047;-83
2022/11/24 12:35:45;;;;;;;10.68;4.25;;;10.90;99.90;;;;;;5109732;28;20365;-84
2022/11/24 12:38:38;;;;;;;12.20;5.05;;;10.90;99.90;;;;;;5111065;28;20454;-84
2022/11/24 12:41:26;;;;;;;10.90;3.63;;;10.90;99.90;;;;;;5110095;28;20525;-83
2022/11/24 12:43:56;;;;;;;12.77;3.80;;;11.00;99.90;;;;;;5109483;28;20047;-84
2022/11/24 12:46:46;;;;;;;11.48;3.38;;;11.00;99.90;;;;;;5110484;28;20133;-84
2022/11/24 12:49:27;;;;;;;9.93;3.22;;;11.00;99.90;;;;;;5110110;28;20131;-83
2022/11/24 12:52:04;;;;;;;11.05;3.40;;;10.90;99.90;;;;;;5110224;28;20523;-84
2022/11/24 12:54:38;;;;;;;8.10;3.80;;;10.90;99.90;;;;;;5110485;28;20051;-84
2022/11/24 12:57:06;;;;;;;10.93;4.85;;;11.00;99.90;;;;;;5109759;28;20044;-83
2022/11/24 12:59:52;;;;;;;10.32;3.70;;;10.90;99.90;;;;;;5108670;28;20079;-84
2022/11/24 13:02:48;;;;;;;11.82;3.92;;;10.90;99.90;;;;;;5110493;28;20120;-84
2022/11/24 13:05:44;;;;;;;10.95;4.25;;;10.90;99.90;;;;;;5110154;27;20043;-84